sensor_id;sensor_type;location;lat;lon;timestamp;pressure;altitude;pressure_sealevel;temperature;humidity
11198;BME280;5655;48.744;9.162;2023-03-22T00:00:11;95999.75;;;13.10;100.00
11198;BME280;5655;48.744;9.162;2023-03-22T00:02:39;96002.78;;;13.09;100.00
11198;BME280;5655;48.744;9.162;2023-03-22T00:05:05;95997.41;;;13.12;100.00
11198;BME280;5655;48.744;9.162;2023-03-22T00:07:30;95995.47;;;13.09;100.00
11198;BME280;5655;48.744;9.162;2023-03-22T00:09:56;95991.66;;;13.03;100.00
11198;BME280;5655;48.744;9.162;2023-03-22T00:12:21;96002.81;;;13.02;100.00
11198;BME280;5655;48.744;9.162;2023-03-22T00:14:46;95991.28;;;12.98;100.00
11198;BME280;5655;48.744;9.162;2023-03-22T00:17:13;95987.84;;;12.97;100.00
11198;BME280;5655;48.744;9.162;2023-03-22T00:19:39;96001.28;;;12.94;100.00
11198;BME280;5655;48.744;9.162;2023-03-22T00:22:06;95994.38;;;12.64;100.00
11198;BME280;5655;48.744;9.162;2023-03-22T00:24:32;95987.50;;;12.46;100.00
11198;BME280;5655;48.744;9.162;2023-03-22T00:26:58;95992.44;;;12.86;100.00
11198;BME280;5655;48.744;9.162;2023-03-22T00:29:24;95992.09;;;12.70;100.00
11198;BME280;5655;48.744;9.162;2023-03-22T00:31:49;95985.16;;;12.83;100.00
11198;BME280;5655;48.744;9.162;2023-03-22T00:34:16;95989.00;;;12.93;100.00
11198;BME280;5655;48.744;9.162;2023-03-22T00:36:41;95985.56;;;12.71;100.00
11198;BME280;5655;48.744;9.162;2023-03-22T00:39:06;95979.81;;;12.41;100.00
11198;BME280;5655;48.744;9.162;2023-03-22T00:41:32;95982.91;;;12.64;100.00
11198;BME280;5655;48.744;9.162;2023-03-22T00:43:58;95984.81;;;12.46;100.00
11198;BME280;5655;48.744;9.162;2023-03-22T00:46:24;95979.81;;;12.41;100.00
11198;BME280;5655;48.744;9.162;2023-03-22T00:48:49;95977.16;;;12.37;100.00
11198;BME280;5655;48.744;9.162;2023-03-22T00:51:15;95971.00;;;12.33;100.00
11198;BME280;5655;48.744;9.162;2023-03-22T00:53:40;95971.38;;;12.56;100.00
11198;BME280;5655;48.744;9.162;2023-03-22T00:56:06;95963.31;;;12.67;100.00
11198;BME280;5655;48.744;9.162;2023-03-22T00:58:32;95957.97;;;12.35;100.00
11198;BME280;5655;48.744;9.162;2023-03-22T01:00:57;95949.16;;;12.49;100.00
11198;BME280;5655;48.744;9.162;2023-03-22T01:03:22;95952.59;;;12.32;100.00
11198;BME280;5655;48.744;9.162;2023-03-22T01:05:51;95948.38;;;12.34;100.00
11198;BME280;5655;48.744;9.162;2023-03-22T01:08:19;95950.69;;;12.28;100.00
11198;BME280;5655;48.744;9.162;2023-03-22T01:10:45;95953.75;;;12.23;100.00
11198;BME280;5655;48.744;9.162;2023-03-22T01:13:11;95953.75;;;12.23;100.00
11198;BME280;5655;48.744;9.162;2023-03-22T01:15:36;95943.00;;;12.27;100.00
11198;BME280;5655;48.744;9.162;2023-03-22T01:18:02;95944.91;;;12.05;100.00
11198;BME280;5655;48.744;9.162;2023-03-22T01:20:28;95939.91;;;12.00;100.00
11198;BME280;5655;48.744;9.162;2023-03-22T01:22:53;95928.44;;;11.82;100.00
11198;BME280;5655;48.744;9.162;2023-03-22T01:25:19;95924.59;;;12.01;100.00
11198;BME280;5655;48.744;9.162;2023-03-22T01:27:44;95923.06;;;11.89;100.00
11198;BME280;5655;48.744;9.162;2023-03-22T01:30:10;95928.44;;;11.93;100.00
11198;BME280;5655;48.744;9.162;2023-03-22T01:32:37;95922.25;;;11.74;100.00
11198;BME280;5655;48.744;9.162;2023-03-22T01:35:03;95906.94;;;11.78;100.00
11198;BME280;5655;48.744;9.162;2023-03-22T01:37:29;95917.69;;;11.82;100.00
11198;BME280;5655;48.744;9.162;2023-03-22T01:39:54;95912.28;;;11.64;100.00
11198;BME280;5655;48.744;9.162;2023-03-22T01:42:20;95905.44;;;11.77;100.00
11198;BME280;5655;48.744;9.162;2023-03-22T01:45:16;95910.78;;;11.92;100.00
11198;BME280;5655;48.744;9.162;2023-03-22T01:47:57;95906.88;;;11.61;100.00
11198;BME280;5655;48.744;9.162;2023-03-22T01:50:24;95903.84;;;11.66;100.00
11198;BME280;5655;48.744;9.162;2023-03-22T01:52:51;95903.88;;;11.80;100.00
11198;BME280;5655;48.744;9.162;2023-03-22T01:55:17;95903.84;;;11.69;100.00
11198;BME280;5655;48.744;9.162;2023-03-22T01:57:43;95909.25;;;11.87;100.00
11198;BME280;5655;48.744;9.162;2023-03-22T02:00:10;95902.75;;;11.92;100.00
11198;BME280;5655;48.744;9.162;2023-03-22T02:02:41;95900.06;;;11.81;100.00
11198;BME280;5655;48.744;9.162;2023-03-22T02:05:07;95910.03;;;11.84;100.00
11198;BME280;5655;48.744;9.162;2023-03-22T02:07:33;95900.06;;;11.81;100.00
11198;BME280;5655;48.744;9.162;2023-03-22T02:09:59;95899.66;;;11.82;100.00
11198;BME280;5655;48.744;9.162;2023-03-22T02:12:33;95890.78;;;11.47;100.00
11198;BME280;5655;48.744;9.162;2023-03-22T02:15:47;95889.25;;;11.53;100.00
11198;BME280;5655;48.744;9.162;2023-03-22T02:23:57;95886.28;;;11.86;100.00
11198;BME280;5655;48.744;9.162;2023-03-22T02:34:47;95878.56;;;11.60;100.00
11198;BME280;5655;48.744;9.162;2023-03-22T02:38:16;95883.13;;;11.49;100.00
11198;BME280;5655;48.744;9.162;2023-03-22T02:40:53;95885.44;;;11.57;100.00
11198;BME280;5655;48.744;9.162;2023-03-22T02:43:37;95878.91;;;11.41;100.00
11198;BME280;5655;48.744;9.162;2023-03-22T02:46:09;95868.91;;;11.23;100.00
11198;BME280;5655;48.744;9.162;2023-03-22T02:51:21;95864.72;;;11.29;100.00
11198;BME280;5655;48.744;9.162;2023-03-22T02:54:03;95873.53;;;11.41;100.00
11198;BME280;5655;48.744;9.162;2023-03-22T02:56:52;95869.31;;;11.39;100.00
11198;BME280;5655;48.744;9.162;2023-03-22T02:59:21;95872.75;;;11.36;100.00
11198;BME280;5655;48.744;9.162;2023-03-22T03:01:51;95866.63;;;11.36;100.00
11198;BME280;5655;48.744;9.162;2023-03-22T03:04:27;95872.34;;;11.31;100.00
11198;BME280;5655;48.744;9.162;2023-03-22T03:06:55;95875.03;;;11.27;100.00
11198;BME280;5655;48.744;9.162;2023-03-22T03:09:22;95878.47;;;11.24;100.00
11198;BME280;5655;48.744;9.162;2023-03-22T03:11:51;95872.34;;;11.24;100.00
11198;BME280;5655;48.744;9.162;2023-03-22T03:14:26;95882.66;;;11.18;100.00
11198;BME280;5655;48.744;9.162;2023-03-22T03:17:36;95872.97;;;10.82;100.00
11198;BME280;5655;48.744;9.162;2023-03-22T03:22:52;95869.94;;;10.87;100.00
11198;BME280;5655;48.744;9.162;2023-03-22T03:25:30;95876.06;;;10.95;100.00
11198;BME280;5655;48.744;9.162;2023-03-22T03:33:39;95878.34;;;10.89;100.00
11198;BME280;5655;48.744;9.162;2023-03-22T03:36:09;95890.94;;;10.85;100.00
11198;BME280;5655;48.744;9.162;2023-03-22T03:38:37;95874.53;;;10.93;100.00
11198;BME280;5655;48.744;9.162;2023-03-22T03:41:08;95885.25;;;10.93;100.00
11198;BME280;5655;48.744;9.162;2023-03-22T03:43:36;95878.94;;;10.58;100.00
11198;BME280;5655;48.744;9.162;2023-03-22T03:46:02;95871.22;;;10.45;100.00
11198;BME280;5655;48.744;9.162;2023-03-22T03:48:30;95875.00;;;10.41;100.00
11198;BME280;5655;48.744;9.162;2023-03-22T03:50:58;95876.25;;;10.58;100.00
11198;BME280;5655;48.744;9.162;2023-03-22T03:53:25;95881.09;;;10.31;100.00
11198;BME280;5655;48.744;9.162;2023-03-22T03:55:50;95881.81;;;10.31;100.00
11198;BME280;5655;48.744;9.162;2023-03-22T03:58:16;95880.47;;;10.59;100.00
11198;BME280;5655;48.744;9.162;2023-03-22T04:00:42;95892.63;;;10.49;100.00
11198;BME280;5655;48.744;9.162;2023-03-22T04:03:08;95902.31;;;10.64;100.00
11198;BME280;5655;48.744;9.162;2023-03-22T04:05:33;95893.53;;;10.71;100.00
11198;BME280;5655;48.744;9.162;2023-03-22T04:07:58;95894.63;;;10.63;100.00
11198;BME280;5655;48.744;9.162;2023-03-22T04:10:24;95891.41;;;10.36;100.00
11198;BME280;5655;48.744;9.162;2023-03-22T04:12:49;95889.50;;;10.36;100.00
11198;BME280;5655;48.744;9.162;2023-03-22T04:15:15;95897.22;;;10.48;100.00
11198;BME280;5655;48.744;9.162;2023-03-22T04:17:40;95879.56;;;10.37;100.00
11198;BME280;5655;48.744;9.162;2023-03-22T04:20:07;95890.28;;;10.40;100.00
11198;BME280;5655;48.744;9.162;2023-03-22T04:22:35;95892.69;;;10.53;100.00
11198;BME280;5655;48.744;9.162;2023-03-22T04:25:12;95890.69;;;10.42;100.00
11198;BME280;5655;48.744;9.162;2023-03-22T04:27:39;95888.06;;;10.50;100.00
11198;BME280;5655;48.744;9.162;2023-03-22T04:30:06;95886.47;;;10.41;100.00
11198;BME280;5655;48.744;9.162;2023-03-22T04:32:34;95881.91;;;10.42;100.00
11198;BME280;5655;48.744;9.162;2023-03-22T04:34:59;95887.53;;;10.26;100.00
11198;BME280;5655;48.744;9.162;2023-03-22T04:37:25;95876.78;;;10.19;100.00
11198;BME280;5655;48.744;9.162;2023-03-22T04:39:51;95869.63;;;10.34;100.00
11198;BME280;5655;48.744;9.162;2023-03-22T04:42:17;95865.56;;;10.03;100.00
11198;BME280;5655;48.744;9.162;2023-03-22T04:44:43;95876.28;;;10.10;100.00
11198;BME280;5655;48.744;9.162;2023-03-22T04:47:08;95868.03;;;10.22;100.00
11198;BME280;5655;48.744;9.162;2023-03-22T04:49:33;95871.50;;;10.26;100.00
11198;BME280;5655;48.744;9.162;2023-03-22T04:51:59;95867.25;;;10.22;100.00
11198;BME280;5655;48.744;9.162;2023-03-22T04:54:24;95859.53;;;10.13;100.00
11198;BME280;5655;48.744;9.162;2023-03-22T04:56:50;95862.97;;;10.14;100.00
11198;BME280;5655;48.744;9.162;2023-03-22T04:59:15;95849.50;;;10.03;100.00
11198;BME280;5655;48.744;9.162;2023-03-22T05:01:48;95845.63;;;9.97;100.00
11198;BME280;5655;48.744;9.162;2023-03-22T05:04:14;95848.78;;;10.10;100.00
11198;BME280;5655;48.744;9.162;2023-03-22T05:06:40;95844.22;;;10.10;100.00
11198;BME280;5655;48.744;9.162;2023-03-22T05:09:06;95846.50;;;10.08;100.00
11198;BME280;5655;48.744;9.162;2023-03-22T05:11:31;95842.44;;;10.28;100.00
11198;BME280;5655;48.744;9.162;2023-03-22T05:13:56;95838.97;;;10.21;100.00
11198;BME280;5655;48.744;9.162;2023-03-22T05:16:23;95841.22;;;10.15;100.00
11198;BME280;5655;48.744;9.162;2023-03-22T05:18:48;95840.38;;;10.08;100.00
11198;BME280;5655;48.744;9.162;2023-03-22T05:21:19;95846.97;;;10.17;100.00
11198;BME280;5655;48.744;9.162;2023-03-22T05:23:46;95837.38;;;10.13;100.00
11198;BME280;5655;48.744;9.162;2023-03-22T05:26:12;95832.84;;;9.73;100.00
11198;BME280;5655;48.744;9.162;2023-03-22T05:28:41;95824.19;;;9.86;100.00
11198;BME280;5655;48.744;9.162;2023-03-22T05:31:07;95848.59;;;10.32;100.00
11198;BME280;5655;48.744;9.162;2023-03-22T05:33:34;95845.19;;;10.35;100.00
11198;BME280;5655;48.744;9.162;2023-03-22T05:35:59;95849.03;;;10.41;100.00
11198;BME280;5655;48.744;9.162;2023-03-22T05:38:25;95842.91;;;10.41;100.00
11198;BME280;5655;48.744;9.162;2023-03-22T05:40:51;95845.97;;;10.39;100.00
11198;BME280;5655;48.744;9.162;2023-03-22T05:43:16;95847.13;;;10.42;100.00
11198;BME280;5655;48.744;9.162;2023-03-22T05:45:42;95846.78;;;10.51;100.00
11198;BME280;5655;48.744;9.162;2023-03-22T05:48:07;95845.19;;;10.35;100.00
11198;BME280;5655;48.744;9.162;2023-03-22T05:50:33;95844.44;;;10.38;100.00
11198;BME280;5655;48.744;9.162;2023-03-22T05:52:59;95841.41;;;10.43;100.00
11198;BME280;5655;48.744;9.162;2023-03-22T05:55:25;95837.31;;;10.64;100.00
11198;BME280;5655;48.744;9.162;2023-03-22T05:57:50;95836.78;;;10.40;100.00
11198;BME280;5655;48.744;9.162;2023-03-22T06:00:18;95837.66;;;10.59;100.00
11198;BME280;5655;48.744;9.162;2023-03-22T06:02:46;95846.13;;;10.68;100.00
11198;BME280;5655;48.744;9.162;2023-03-22T06:05:13;95846.13;;;10.68;100.00
11198;BME280;5655;48.744;9.162;2023-03-22T06:07:40;95845.34;;;10.67;100.00
11198;BME280;5655;48.744;9.162;2023-03-22T06:10:07;95844.56;;;10.60;100.00
11198;BME280;5655;48.744;9.162;2023-03-22T06:12:33;95848.38;;;10.66;100.00
11198;BME280;5655;48.744;9.162;2023-03-22T06:14:59;95855.13;;;10.38;100.00
11198;BME280;5655;48.744;9.162;2023-03-22T06:17:25;95857.53;;;10.58;100.00
11198;BME280;5655;48.744;9.162;2023-03-22T06:19:51;95853.75;;;10.66;100.00
11198;BME280;5655;48.744;9.162;2023-03-22T06:22:17;95868.97;;;10.55;100.00
11198;BME280;5655;48.744;9.162;2023-03-22T06:24:42;95866.50;;;10.90;100.00
11198;BME280;5655;48.744;9.162;2023-03-22T06:27:08;95867.84;;;10.56;100.00
11198;BME280;5655;48.744;9.162;2023-03-22T06:29:34;95867.63;;;10.89;100.00
11198;BME280;5655;48.744;9.162;2023-03-22T06:32:00;95866.91;;;11.03;100.00
11198;BME280;5655;48.744;9.162;2023-03-22T06:34:26;95879.94;;;11.04;100.00
11198;BME280;5655;48.744;9.162;2023-03-22T06:36:51;95870.72;;;10.91;100.00
11198;BME280;5655;48.744;9.162;2023-03-22T06:39:20;95879.25;;;11.21;100.00
11198;BME280;5655;48.744;9.162;2023-03-22T06:41:46;95882.69;;;11.32;100.00
11198;BME280;5655;48.744;9.162;2023-03-22T06:44:11;95878.38;;;11.00;100.00
11198;BME280;5655;48.744;9.162;2023-03-22T06:46:37;95880.69;;;11.01;100.00
11198;BME280;5655;48.744;9.162;2023-03-22T06:49:02;95884.19;;;11.23;100.00
11198;BME280;5655;48.744;9.162;2023-03-22T06:51:28;95883.84;;;11.24;100.00
11198;BME280;5655;48.744;9.162;2023-03-22T06:53:53;95883.06;;;11.20;100.00
11198;BME280;5655;48.744;9.162;2023-03-22T06:56:18;95885.44;;;11.43;100.00
11198;BME280;5655;48.744;9.162;2023-03-22T06:58:44;95880.06;;;11.54;100.00
11198;BME280;5655;48.744;9.162;2023-03-22T07:01:09;95893.78;;;11.31;100.00
11198;BME280;5655;48.744;9.162;2023-03-22T07:03:35;95888.91;;;11.65;100.00
11198;BME280;5655;48.744;9.162;2023-03-22T07:06:02;95887.06;;;11.90;100.00
11198;BME280;5655;48.744;9.162;2023-03-22T07:08:27;95889.75;;;11.94;100.00
11198;BME280;5655;48.744;9.162;2023-03-22T07:10:53;95890.50;;;12.22;100.00
11198;BME280;5655;48.744;9.162;2023-03-22T07:13:18;95883.22;;;12.37;100.00
11198;BME280;5655;48.744;9.162;2023-03-22T07:15:43;95890.13;;;12.20;100.00
11198;BME280;5655;48.744;9.162;2023-03-22T07:18:08;95887.41;;;12.35;100.00
11198;BME280;5655;48.744;9.162;2023-03-22T07:20:34;95891.28;;;12.19;100.00
11198;BME280;5655;48.744;9.162;2023-03-22T07:23:02;95881.69;;;12.22;100.00
11198;BME280;5655;48.744;9.162;2023-03-22T07:25:28;95886.28;;;12.11;100.00
11198;BME280;5655;48.744;9.162;2023-03-22T07:27:53;95883.56;;;12.43;100.00
11198;BME280;5655;48.744;9.162;2023-03-22T07:30:18;95883.19;;;12.48;100.00
11198;BME280;5655;48.744;9.162;2023-03-22T07:32:44;95884.69;;;12.56;100.00
11198;BME280;5655;48.744;9.162;2023-03-22T07:35:09;95881.22;;;12.80;100.00
11198;BME280;5655;48.744;9.162;2023-03-22T07:37:35;95875.81;;;12.87;100.00
11198;BME280;5655;48.744;9.162;2023-03-22T07:40:01;95883.00;;;13.08;100.00
11198;BME280;5655;48.744;9.162;2023-03-22T07:42:28;95877.69;;;13.01;100.00
11198;BME280;5655;48.744;9.162;2023-03-22T07:44:54;95886.81;;;13.25;100.00
11198;BME280;5655;48.744;9.162;2023-03-22T07:47:20;95886.88;;;13.14;100.00
11198;BME280;5655;48.744;9.162;2023-03-22T07:49:45;95892.88;;;13.43;100.00
11198;BME280;5655;48.744;9.162;2023-03-22T07:52:10;95887.25;;;13.20;100.00
11198;BME280;5655;48.744;9.162;2023-03-22T07:54:36;95889.94;;;13.09;100.00
11198;BME280;5655;48.744;9.162;2023-03-22T07:57:01;95887.53;;;13.39;100.00
11198;BME280;5655;48.744;9.162;2023-03-22T07:59:27;95887.50;;;13.43;100.00
11198;BME280;5655;48.744;9.162;2023-03-22T08:01:52;95894.44;;;13.40;100.00
11198;BME280;5655;48.744;9.162;2023-03-22T08:04:18;95893.16;;;13.62;100.00
11198;BME280;5655;48.744;9.162;2023-03-22T08:06:45;95893.22;;;13.52;100.00
11198;BME280;5655;48.744;9.162;2023-03-22T08:09:10;95888.91;;;13.65;100.00
11198;BME280;5655;48.744;9.162;2023-03-22T08:11:36;95897.38;;;13.67;100.00
11198;BME280;5655;48.744;9.162;2023-03-22T08:14:02;95895.63;;;13.94;100.00
11198;BME280;5655;48.744;9.162;2023-03-22T08:16:27;95902.50;;;14.02;100.00
11198;BME280;5655;48.744;9.162;2023-03-22T08:18:52;95898.31;;;13.94;100.00
11198;BME280;5655;48.744;9.162;2023-03-22T08:21:18;95903.94;;;14.18;100.00
11198;BME280;5655;48.744;9.162;2023-03-22T08:23:43;95896.09;;;14.34;100.00
11198;BME280;5655;48.744;9.162;2023-03-22T08:26:09;95911.47;;;14.37;100.00
11198;BME280;5655;48.744;9.162;2023-03-22T08:28:35;95898.63;;;14.55;100.00
11198;BME280;5655;48.744;9.162;2023-03-22T08:31:01;95894.56;;;14.77;100.00
11198;BME280;5655;48.744;9.162;2023-03-22T08:33:26;95902.84;;;14.56;100.00
11198;BME280;5655;48.744;9.162;2023-03-22T08:36:04;95897.94;;;14.88;100.00
11198;BME280;5655;48.744;9.162;2023-03-22T08:38:30;95884.84;;;14.87;100.00
11198;BME280;5655;48.744;9.162;2023-03-22T08:40:56;95890.09;;;15.01;100.00
11198;BME280;5655;48.744;9.162;2023-03-22T08:43:21;95886.91;;;15.10;100.00
11198;BME280;5655;48.744;9.162;2023-03-22T08:45:46;95896.97;;;15.02;100.00
11198;BME280;5655;48.744;9.162;2023-03-22T08:48:11;95890.72;;;14.78;100.00
11198;BME280;5655;48.744;9.162;2023-03-22T08:50:37;95893.25;;;14.92;100.00
11198;BME280;5655;48.744;9.162;2023-03-22T08:53:03;95887.81;;;15.30;100.00
11198;BME280;5655;48.744;9.162;2023-03-22T08:55:29;95883.63;;;15.25;100.00
11198;BME280;5655;48.744;9.162;2023-03-22T08:57:55;95876.47;;;15.42;100.00
11198;BME280;5655;48.744;9.162;2023-03-22T09:00:23;95884.66;;;15.35;100.00
11198;BME280;5655;48.744;9.162;2023-03-22T09:02:49;95880.53;;;15.84;100.00
11198;BME280;5655;48.744;9.162;2023-03-22T09:05:14;95875.41;;;15.66;100.00
11198;BME280;5655;48.744;9.162;2023-03-22T09:07:40;95871.22;;;15.88;100.00
11198;BME280;5655;48.744;9.162;2023-03-22T09:10:07;95880.00;;;15.69;100.00
11198;BME280;5655;48.744;9.162;2023-03-22T09:12:32;95877.50;;;15.82;100.00
11198;BME280;5655;48.744;9.162;2023-03-22T09:14:57;95872.25;;;15.71;100.00
11198;BME280;5655;48.744;9.162;2023-03-22T09:17:23;95874.78;;;15.55;100.00
11198;BME280;5655;48.744;9.162;2023-03-22T09:19:48;95881.97;;;15.92;100.00
11198;BME280;5655;48.744;9.162;2023-03-22T09:22:14;95868.31;;;15.76;100.00
11198;BME280;5655;48.744;9.162;2023-03-22T09:24:39;95861.25;;;15.85;100.00
11198;BME280;5655;48.744;9.162;2023-03-22T09:27:05;95869.84;;;16.27;100.00
11198;BME280;5655;48.744;9.162;2023-03-22T09:29:30;95860.50;;;16.55;100.00
11198;BME280;5655;48.744;9.162;2023-03-22T09:31:56;95855.34;;;16.64;100.00
11198;BME280;5655;48.744;9.162;2023-03-22T09:34:21;95854.53;;;17.06;100.00
11198;BME280;5655;48.744;9.162;2023-03-22T09:36:46;95851.16;;;16.83;100.00
11198;BME280;5655;48.744;9.162;2023-03-22T09:39:12;95852.44;;;17.14;100.00
11198;BME280;5655;48.744;9.162;2023-03-22T09:41:56;95858.66;;;17.31;100.00
11198;BME280;5655;48.744;9.162;2023-03-22T09:44:26;95855.84;;;17.54;100.00
11198;BME280;5655;48.744;9.162;2023-03-22T09:46:56;95850.16;;;17.48;100.00
11198;BME280;5655;48.744;9.162;2023-03-22T09:49:28;95851.34;;;17.99;100.00
11198;BME280;5655;48.744;9.162;2023-03-22T09:51:55;95849.41;;;18.00;100.00
11198;BME280;5655;48.744;9.162;2023-03-22T09:54:35;95848.56;;;18.35;100.00
11198;BME280;5655;48.744;9.162;2023-03-22T09:57:23;95851.91;;;18.72;100.00
11198;BME280;5655;48.744;9.162;2023-03-22T10:03:08;95848.16;;;18.82;100.00
11198;BME280;5655;48.744;9.162;2023-03-22T10:05:42;95836.97;;;18.35;100.00
11198;BME280;5655;48.744;9.162;2023-03-22T10:14:48;95814.59;;;18.31;100.00
11198;BME280;5655;48.744;9.162;2023-03-22T10:16:55;95826.66;;;18.75;100.00
11198;BME280;5655;48.744;9.162;2023-03-22T10:19:26;95829.19;;;18.37;100.00
11198;BME280;5655;48.744;9.162;2023-03-22T10:21:55;95808.25;;;18.21;100.00
11198;BME280;5655;48.744;9.162;2023-03-22T10:24:26;95819.41;;;18.55;100.00
11198;BME280;5655;48.744;9.162;2023-03-22T10:26:52;95810.50;;;18.10;100.00
11198;BME280;5655;48.744;9.162;2023-03-22T10:29:40;95805.34;;;18.61;100.00
11198;BME280;5655;48.744;9.162;2023-03-22T10:32:40;95799.31;;;19.11;100.00
11198;BME280;5655;48.744;9.162;2023-03-22T10:35:04;95803.53;;;19.24;100.00
11198;BME280;5655;48.744;9.162;2023-03-22T10:37:32;95796.44;;;19.56;100.00
11198;BME280;5655;48.744;9.162;2023-03-22T10:40:01;95796.00;;;19.44;100.00
11198;BME280;5655;48.744;9.162;2023-03-22T10:42:35;95792.94;;;19.68;100.00
11198;BME280;5655;48.744;9.162;2023-03-22T10:45:05;95794.25;;;19.88;100.00
11198;BME280;5655;48.744;9.162;2023-03-22T10:47:42;95788.97;;;20.19;97.32
11198;BME280;5655;48.744;9.162;2023-03-22T10:50:20;95782.31;;;20.20;95.17
11198;BME280;5655;48.744;9.162;2023-03-22T10:55:28;95781.91;;;20.56;89.04
11198;BME280;5655;48.744;9.162;2023-03-22T10:57:59;95777.63;;;20.68;86.62
11198;BME280;5655;48.744;9.162;2023-03-22T11:00:32;95772.72;;;20.63;87.83
11198;BME280;5655;48.744;9.162;2023-03-22T11:02:59;95773.13;;;20.74;86.17
11198;BME280;5655;48.744;9.162;2023-03-22T11:05:27;95764.41;;;20.79;80.51
11198;BME280;5655;48.744;9.162;2023-03-22T11:07:53;95769.53;;;20.77;72.86
11198;BME280;5655;48.744;9.162;2023-03-22T11:12:52;95767.16;;;20.10;74.35
11198;BME280;5655;48.744;9.162;2023-03-22T11:15:27;95773.53;;;20.16;77.95
11198;BME280;5655;48.744;9.162;2023-03-22T11:17:58;95786.25;;;20.54;74.68
11198;BME280;5655;48.744;9.162;2023-03-22T11:20:24;95778.34;;;20.12;79.49
11198;BME280;5655;48.744;9.162;2023-03-22T11:22:50;95758.41;;;20.15;76.00
11198;BME280;5655;48.744;9.162;2023-03-22T11:25:20;95763.88;;;20.71;73.76
11198;BME280;5655;48.744;9.162;2023-03-22T11:28:14;95759.06;;;20.54;75.32
11198;BME280;5655;48.744;9.162;2023-03-22T11:30:57;95755.66;;;20.84;73.92
11198;BME280;5655;48.744;9.162;2023-03-22T11:33:23;95758.19;;;20.35;69.78
11198;BME280;5655;48.744;9.162;2023-03-22T11:35:58;95757.94;;;20.64;67.51
11198;BME280;5655;48.744;9.162;2023-03-22T11:38:34;95759.91;;;21.38;64.66
11198;BME280;5655;48.744;9.162;2023-03-22T11:41:04;95750.94;;;21.06;68.11
11198;BME280;5655;48.744;9.162;2023-03-22T11:43:34;95739.28;;;21.67;63.13
11198;BME280;5655;48.744;9.162;2023-03-22T11:46:00;95746.69;;;21.67;62.82
11198;BME280;5655;48.744;9.162;2023-03-22T11:48:28;95751.56;;;21.72;61.54
11198;BME280;5655;48.744;9.162;2023-03-22T11:51:06;95743.78;;;22.10;57.01
11198;BME280;5655;48.744;9.162;2023-03-22T11:53:34;95744.56;;;22.47;54.95
11198;BME280;5655;48.744;9.162;2023-03-22T11:56:01;95740.69;;;21.90;53.56
11198;BME280;5655;48.744;9.162;2023-03-22T12:01:09;95744.13;;;21.72;49.66
11198;BME280;5655;48.744;9.162;2023-03-22T12:03:39;95730.44;;;21.94;49.87
11198;BME280;5655;48.744;9.162;2023-03-22T12:06:28;95722.44;;;22.09;49.87
11198;BME280;5655;48.744;9.162;2023-03-22T12:09:07;95723.50;;;22.21;47.97
11198;BME280;5655;48.744;9.162;2023-03-22T12:11:39;95725.28;;;21.96;47.72
11198;BME280;5655;48.744;9.162;2023-03-22T12:14:21;95715.91;;;22.06;47.37
11198;BME280;5655;48.744;9.162;2023-03-22T12:17:00;95714.56;;;22.20;47.74
11198;BME280;5655;48.744;9.162;2023-03-22T12:21:57;95718.81;;;21.54;47.82
11198;BME280;5655;48.744;9.162;2023-03-22T12:24:29;95718.47;;;21.43;47.72
11198;BME280;5655;48.744;9.162;2023-03-22T12:27:11;95718.03;;;21.93;47.43
11198;BME280;5655;48.744;9.162;2023-03-22T12:29:44;95713.94;;;22.07;48.13
11198;BME280;5655;48.744;9.162;2023-03-22T12:32:17;95716.81;;;22.40;47.21
11198;BME280;5655;48.744;9.162;2023-03-22T12:34:47;95708.34;;;22.01;46.15
11198;BME280;5655;48.744;9.162;2023-03-22T12:37:18;95708.34;;;22.65;45.95
11198;BME280;5655;48.744;9.162;2023-03-22T12:39:49;95712.13;;;22.40;45.14
11198;BME280;5655;48.744;9.162;2023-03-22T12:45:01;95712.97;;;22.92;45.37
11198;BME280;5655;48.744;9.162;2023-03-22T12:47:39;95708.78;;;22.63;45.85
11198;BME280;5655;48.744;9.162;2023-03-22T12:50:22;95703.81;;;22.16;46.28
11198;BME280;5655;48.744;9.162;2023-03-22T12:52:51;95703.50;;;22.24;47.13
11198;BME280;5655;48.744;9.162;2023-03-22T12:55:31;95705.00;;;21.97;47.77
11198;BME280;5655;48.744;9.162;2023-03-22T12:57:58;95698.59;;;21.73;47.73
11198;BME280;5655;48.744;9.162;2023-03-22T13:05:41;95696.06;;;22.70;45.80
11198;BME280;5655;48.744;9.162;2023-03-22T13:08:08;95690.25;;;22.95;45.52
11198;BME280;5655;48.744;9.162;2023-03-22T13:15:39;95676.56;;;23.46;43.87
11198;BME280;5655;48.744;9.162;2023-03-22T13:26:51;95665.19;;;24.10;43.90
11198;BME280;5655;48.744;9.162;2023-03-22T13:29:21;95660.16;;;23.70;44.39
11198;BME280;5655;48.744;9.162;2023-03-22T13:32:06;95661.78;;;23.20;44.18
11198;BME280;5655;48.744;9.162;2023-03-22T13:34:47;95660.38;;;22.91;44.74
11198;BME280;5655;48.744;9.162;2023-03-22T13:39:56;95649.16;;;22.89;44.84
11198;BME280;5655;48.744;9.162;2023-03-22T13:42:31;95658.41;;;22.92;45.21
11198;BME280;5655;48.744;9.162;2023-03-22T13:44:58;95633.78;;;23.01;44.80
11198;BME280;5655;48.744;9.162;2023-03-22T13:47:44;95645.47;;;23.01;43.67
11198;BME280;5655;48.744;9.162;2023-03-22T13:50:28;95647.97;;;22.90;45.34
11198;BME280;5655;48.744;9.162;2023-03-22T13:53:02;95640.25;;;23.13;45.14
11198;BME280;5655;48.744;9.162;2023-03-22T14:01:02;95635.31;;;22.51;44.61
11198;BME280;5655;48.744;9.162;2023-03-22T14:03:31;95626.47;;;22.74;45.14
11198;BME280;5655;48.744;9.162;2023-03-22T14:06:26;95624.31;;;22.78;45.42
11198;BME280;5655;48.744;9.162;2023-03-22T14:09:10;95620.47;;;23.03;45.32
11198;BME280;5655;48.744;9.162;2023-03-22T14:14:18;95622.28;;;22.46;45.39
11198;BME280;5655;48.744;9.162;2023-03-22T14:16:48;95621.88;;;22.89;44.27
11198;BME280;5655;48.744;9.162;2023-03-22T14:19:21;95621.94;;;22.62;45.43
11198;BME280;5655;48.744;9.162;2023-03-22T14:21:54;95627.06;;;22.78;44.66
11198;BME280;5655;48.744;9.162;2023-03-22T14:24:23;95622.88;;;22.50;45.73
11198;BME280;5655;48.744;9.162;2023-03-22T14:26:53;95626.25;;;22.27;46.22
11198;BME280;5655;48.744;9.162;2023-03-22T14:29:21;95627.16;;;22.33;46.07